sensor_id;sensor_type;location;lat;lon;timestamp;pressure;altitude;pressure_sealevel;temperature;humidity
49104;BME280;34915;52.926;11.116;2023-04-27T00:00:04;101827.78;;;6.40;79.78
49104;BME280;34915;52.926;11.116;2023-04-27T00:02:36;101824.25;;;6.41;80.26
49104;BME280;34915;52.926;11.116;2023-04-27T00:05:05;101824.25;;;6.41;80.79
49104;BME280;34915;52.926;11.116;2023-04-27T00:07:31;101819.00;;;6.41;80.29
49104;BME280;34915;52.926;11.116;2023-04-27T00:09:56;101824.25;;;6.41;81.22
49104;BME280;34915;52.926;11.116;2023-04-27T00:12:22;101817.38;;;6.37;80.79
49104;BME280;34915;52.926;11.116;2023-04-27T00:14:48;101817.50;;;6.34;80.60
49104;BME280;34915;52.926;11.116;2023-04-27T00:17:14;101822.75;;;6.34;81.56
49104;BME280;34915;52.926;11.116;2023-04-27T00:19:39;101819.09;;;6.38;81.90
49104;BME280;34915;52.926;11.116;2023-04-27T00:22:07;101828.03;;;6.34;81.33
49104;BME280;34915;52.926;11.116;2023-04-27T00:24:32;101822.88;;;6.31;81.53
49104;BME280;34915;52.926;11.116;2023-04-27T00:26:58;101828.25;;;6.28;82.55
49104;BME280;34915;52.926;11.116;2023-04-27T00:29:24;101830.31;;;6.20;82.57
49104;BME280;34915;52.926;11.116;2023-04-27T00:31:49;101819.97;;;6.14;83.29
49104;BME280;34915;52.926;11.116;2023-04-27T00:34:15;101827.19;;;6.09;84.33
49104;BME280;34915;52.926;11.116;2023-04-27T00:36:40;101830.72;;;6.08;83.55
49104;BME280;34915;52.926;11.116;2023-04-27T00:39:06;101829.13;;;6.04;84.01
49104;BME280;34915;52.926;11.116;2023-04-27T00:41:31;101837.06;;;6.03;84.76
49104;BME280;34915;52.926;11.116;2023-04-27T00:43:59;101832.09;;;5.95;83.92
49104;BME280;34915;52.926;11.116;2023-04-27T00:46:25;101840.25;;;5.87;84.83
49104;BME280;34915;52.926;11.116;2023-04-27T00:48:52;101839.63;;;5.80;84.29
49104;BME280;34915;52.926;11.116;2023-04-27T00:51:18;101844.13;;;5.77;86.17
49104;BME280;34915;52.926;11.116;2023-04-27T00:53:43;101837.44;;;5.67;84.68
49104;BME280;34915;52.926;11.116;2023-04-27T00:56:09;101836.66;;;5.63;84.72
49104;BME280;34915;52.926;11.116;2023-04-27T00:58:35;101840.44;;;5.56;85.16
49104;BME280;34915;52.926;11.116;2023-04-27T01:01:00;101834.34;;;5.54;85.49
49104;BME280;34915;52.926;11.116;2023-04-27T01:03:26;101834.41;;;5.53;86.68
49104;BME280;34915;52.926;11.116;2023-04-27T01:05:52;101829.25;;;5.50;86.41
49104;BME280;34915;52.926;11.116;2023-04-27T01:08:17;101836.31;;;5.48;86.92
49104;BME280;34915;52.926;11.116;2023-04-27T01:10:43;101831.28;;;5.42;88.46
49104;BME280;34915;52.926;11.116;2023-04-27T01:13:08;101831.28;;;5.42;87.96
49104;BME280;34915;52.926;11.116;2023-04-27T01:15:34;101841.97;;;5.36;88.32
49104;BME280;34915;52.926;11.116;2023-04-27T01:18:00;101841.97;;;5.36;88.63
49104;BME280;34915;52.926;11.116;2023-04-27T01:20:27;101824.59;;;5.32;90.58
49104;BME280;34915;52.926;11.116;2023-04-27T01:22:58;101833.56;;;5.25;89.65
49104;BME280;34915;52.926;11.116;2023-04-27T01:25:24;101827.72;;;5.17;88.78
49104;BME280;34915;52.926;11.116;2023-04-27T01:27:50;101835.69;;;5.14;88.97
49104;BME280;34915;52.926;11.116;2023-04-27T01:30:15;101831.59;;;5.06;89.56
49104;BME280;34915;52.926;11.116;2023-04-27T01:32:41;101839.59;;;5.01;91.25
49104;BME280;34915;52.926;11.116;2023-04-27T01:35:07;101837.25;;;4.92;91.68
49104;BME280;34915;52.926;11.116;2023-04-27T01:37:33;101846.97;;;4.89;92.47
49104;BME280;34915;52.926;11.116;2023-04-27T01:39:59;101851.72;;;4.78;90.94
49104;BME280;34915;52.926;11.116;2023-04-27T01:42:24;101854.75;;;4.65;91.33
49104;BME280;34915;52.926;11.116;2023-04-27T01:44:50;101854.97;;;4.56;92.45
49104;BME280;34915;52.926;11.116;2023-04-27T01:47:16;101858.44;;;4.58;93.29
49104;BME280;34915;52.926;11.116;2023-04-27T01:49:42;101865.47;;;4.56;92.73
49104;BME280;34915;52.926;11.116;2023-04-27T01:52:08;101869.03;;;4.55;93.30
49104;BME280;34915;52.926;11.116;2023-04-27T01:54:33;101858.63;;;4.52;93.68
49104;BME280;34915;52.926;11.116;2023-04-27T01:56:59;101869.91;;;4.54;94.15
49104;BME280;34915;52.926;11.116;2023-04-27T01:59:26;101869.97;;;4.52;95.08
49104;BME280;34915;52.926;11.116;2023-04-27T02:01:52;101870.91;;;4.50;94.10
49104;BME280;34915;52.926;11.116;2023-04-27T02:04:18;101877.97;;;4.48;94.81
49104;BME280;34915;52.926;11.116;2023-04-27T02:06:44;101878.94;;;4.44;94.15
49104;BME280;34915;52.926;11.116;2023-04-27T02:09:10;101881.66;;;4.41;94.37
49104;BME280;34915;52.926;11.116;2023-04-27T02:11:35;101879.91;;;4.40;95.17
49104;BME280;34915;52.926;11.116;2023-04-27T02:14:01;101882.63;;;4.37;95.39
49104;BME280;34915;52.926;11.116;2023-04-27T02:16:26;101880.09;;;4.34;95.72
49104;BME280;34915;52.926;11.116;2023-04-27T02:18:52;101881.81;;;4.35;95.66
49104;BME280;34915;52.926;11.116;2023-04-27T02:21:18;101892.41;;;4.32;95.51
49104;BME280;34915;52.926;11.116;2023-04-27T02:23:44;101893.38;;;4.28;96.51
49104;BME280;34915;52.926;11.116;2023-04-27T02:26:19;101899.72;;;4.21;96.81
49104;BME280;34915;52.926;11.116;2023-04-27T02:28:47;101897.91;;;4.23;97.26
49104;BME280;34915;52.926;11.116;2023-04-27T02:31:13;101899.75;;;4.18;97.38
49104;BME280;34915;52.926;11.116;2023-04-27T02:33:39;101894.69;;;4.12;97.26
49104;BME280;34915;52.926;11.116;2023-04-27T02:36:06;101890.31;;;4.13;96.79
49104;BME280;34915;52.926;11.116;2023-04-27T02:38:32;101894.84;;;4.06;97.34
49104;BME280;34915;52.926;11.116;2023-04-27T02:40:58;101895.72;;;4.07;97.22
49104;BME280;34915;52.926;11.116;2023-04-27T02:43:23;101907.31;;;3.98;96.45
49104;BME280;34915;52.926;11.116;2023-04-27T02:45:49;101900.34;;;3.97;97.64
49104;BME280;34915;52.926;11.116;2023-04-27T02:48:15;101906.50;;;3.95;97.18
49104;BME280;34915;52.926;11.116;2023-04-27T02:50:41;101903.91;;;3.93;97.74
49104;BME280;34915;52.926;11.116;2023-04-27T02:53:08;101907.63;;;3.87;98.35
49104;BME280;34915;52.926;11.116;2023-04-27T02:55:33;101916.38;;;3.86;98.62
49104;BME280;34915;52.926;11.116;2023-04-27T02:57:59;101916.44;;;3.83;98.78
49104;BME280;34915;52.926;11.116;2023-04-27T03:00:24;101918.34;;;3.78;99.13
49104;BME280;34915;52.926;11.116;2023-04-27T03:02:50;101918.41;;;3.75;99.67
49104;BME280;34915;52.926;11.116;2023-04-27T03:05:16;101919.41;;;3.69;99.89
49104;BME280;34915;52.926;11.116;2023-04-27T03:07:41;101914.28;;;3.65;100.00
49104;BME280;34915;52.926;11.116;2023-04-27T03:10:07;101920.50;;;3.61;100.00
49104;BME280;34915;52.926;11.116;2023-04-27T03:12:33;101922.16;;;3.65;100.00
49104;BME280;34915;52.926;11.116;2023-04-27T03:14:58;101923.03;;;3.64;100.00
49104;BME280;34915;52.926;11.116;2023-04-27T03:17:25;101921.50;;;3.55;100.00
49104;BME280;34915;52.926;11.116;2023-04-27T03:19:51;101926.69;;;3.57;100.00
49104;BME280;34915;52.926;11.116;2023-04-27T03:22:17;101916.28;;;3.54;100.00
49104;BME280;34915;52.926;11.116;2023-04-27T03:24:43;101920.72;;;3.52;100.00
49104;BME280;34915;52.926;11.116;2023-04-27T03:27:08;101917.22;;;3.53;100.00
49104;BME280;34915;52.926;11.116;2023-04-27T03:29:34;101924.28;;;3.48;100.00
49104;BME280;34915;52.926;11.116;2023-04-27T03:32:02;101927.88;;;3.44;100.00
49104;BME280;34915;52.926;11.116;2023-04-27T03:34:29;101921.81;;;3.42;100.00
49104;BME280;34915;52.926;11.116;2023-04-27T03:36:55;101923.56;;;3.43;100.00
49104;BME280;34915;52.926;11.116;2023-04-27T03:39:24;101923.63;;;3.40;100.00
49104;BME280;34915;52.926;11.116;2023-04-27T03:41:49;101926.25;;;3.40;100.00
49104;BME280;34915;52.926;11.116;2023-04-27T03:44:15;101921.09;;;3.37;100.00
49104;BME280;34915;52.926;11.116;2023-04-27T03:46:40;101928.09;;;3.35;100.00
49104;BME280;34915;52.926;11.116;2023-04-27T03:49:06;101928.16;;;3.32;100.00
49104;BME280;34915;52.926;11.116;2023-04-27T03:51:31;101926.63;;;3.22;100.00
49104;BME280;34915;52.926;11.116;2023-04-27T03:54:00;101936.50;;;3.11;100.00
49104;BME280;34915;52.926;11.116;2023-04-27T03:56:32;101943.69;;;3.00;100.00
49104;BME280;34915;52.926;11.116;2023-04-27T03:58:58;101936.03;;;2.92;100.00
49104;BME280;34915;52.926;11.116;2023-04-27T04:01:24;101944.88;;;2.88;100.00
49104;BME280;34915;52.926;11.116;2023-04-27T04:03:49;101941.47;;;2.83;100.00
49104;BME280;34915;52.926;11.116;2023-04-27T04:06:15;101931.75;;;2.89;100.00
49104;BME280;34915;52.926;11.116;2023-04-27T04:08:41;101937.91;;;2.87;100.00
49104;BME280;34915;52.926;11.116;2023-04-27T04:11:06;101934.41;;;2.88;100.00
49104;BME280;34915;52.926;11.116;2023-04-27T04:13:32;101939.66;;;2.88;100.00
49104;BME280;34915;52.926;11.116;2023-04-27T04:16:01;101939.75;;;2.82;100.00
49104;BME280;34915;52.926;11.116;2023-04-27T04:18:27;101938.97;;;2.78;100.00
49104;BME280;34915;52.926;11.116;2023-04-27T04:20:53;101943.34;;;2.78;100.00
49104;BME280;34915;52.926;11.116;2023-04-27T04:23:18;101939.81;;;2.79;100.00
49104;BME280;34915;52.926;11.116;2023-04-27T04:25:44;101946.72;;;2.83;100.00
49104;BME280;34915;52.926;11.116;2023-04-27T04:28:12;101944.91;;;2.85;100.00
49104;BME280;34915;52.926;11.116;2023-04-27T04:30:40;101948.44;;;2.84;100.00
49104;BME280;34915;52.926;11.116;2023-04-27T04:33:07;101950.19;;;2.82;100.00
49104;BME280;34915;52.926;11.116;2023-04-27T04:35:33;101943.41;;;2.75;100.00
49104;BME280;34915;52.926;11.116;2023-04-27T04:37:58;101944.25;;;2.75;100.00
49104;BME280;34915;52.926;11.116;2023-04-27T04:40:24;101947.78;;;2.73;100.00
49104;BME280;34915;52.926;11.116;2023-04-27T04:42:50;101952.06;;;2.77;100.00
49104;BME280;34915;52.926;11.116;2023-04-27T04:45:16;101949.44;;;2.77;100.00
49104;BME280;34915;52.926;11.116;2023-04-27T04:47:41;101952.19;;;2.71;100.00
49104;BME280;34915;52.926;11.116;2023-04-27T04:50:07;101951.25;;;2.75;100.00
49104;BME280;34915;52.926;11.116;2023-04-27T04:52:34;101960.50;;;2.91;100.00
49104;BME280;34915;52.926;11.116;2023-04-27T04:55:02;101970.91;;;2.93;100.00
49104;BME280;34915;52.926;11.116;2023-04-27T04:57:29;101965.56;;;2.99;100.00
49104;BME280;34915;52.926;11.116;2023-04-27T04:59:54;101969.84;;;3.02;100.00
49104;BME280;34915;52.926;11.116;2023-04-27T05:02:20;101966.16;;;3.10;100.00
49104;BME280;34915;52.926;11.116;2023-04-27T05:04:46;101972.00;;;3.24;100.00
49104;BME280;34915;52.926;11.116;2023-04-27T05:07:11;101970.06;;;3.32;100.00
49104;BME280;34915;52.926;11.116;2023-04-27T05:09:37;101970.06;;;3.32;100.00
49104;BME280;34915;52.926;11.116;2023-04-27T05:12:03;101966.53;;;3.33;100.00
49104;BME280;34915;52.926;11.116;2023-04-27T05:14:29;101968.13;;;3.40;100.00
49104;BME280;34915;52.926;11.116;2023-04-27T05:16:54;101974.06;;;3.48;100.00
49104;BME280;34915;52.926;11.116;2023-04-27T05:19:20;101971.22;;;3.57;100.00
49104;BME280;34915;52.926;11.116;2023-04-27T05:21:46;101971.06;;;3.63;100.00
49104;BME280;34915;52.926;11.116;2023-04-27T05:24:11;101976.97;;;3.72;100.00
49104;BME280;34915;52.926;11.116;2023-04-27T05:26:37;101981.22;;;3.78;100.00
49104;BME280;34915;52.926;11.116;2023-04-27T05:29:03;101987.78;;;3.93;100.00
49104;BME280;34915;52.926;11.116;2023-04-27T05:31:28;101988.56;;;3.98;100.00
49104;BME280;34915;52.926;11.116;2023-04-27T05:33:54;101992.56;;;4.13;100.00
49104;BME280;34915;52.926;11.116;2023-04-27T05:36:20;101994.16;;;4.18;100.00
49104;BME280;34915;52.926;11.116;2023-04-27T05:38:50;101994.75;;;4.29;100.00
49104;BME280;34915;52.926;11.116;2023-04-27T05:41:16;101990.03;;;4.43;100.00
49104;BME280;34915;52.926;11.116;2023-04-27T05:43:41;101989.88;;;4.49;99.93
49104;BME280;34915;52.926;11.116;2023-04-27T05:46:07;101987.63;;;4.66;98.58
49104;BME280;34915;52.926;11.116;2023-04-27T05:48:35;101994.28;;;4.79;98.44
49104;BME280;34915;52.926;11.116;2023-04-27T05:51:01;101991.22;;;4.93;97.04
49104;BME280;34915;52.926;11.116;2023-04-27T05:53:28;101990.06;;;5.03;96.52
49104;BME280;34915;52.926;11.116;2023-04-27T05:55:55;101992.38;;;5.14;96.68
49104;BME280;34915;52.926;11.116;2023-04-27T05:58:21;101993.00;;;5.23;96.52
49104;BME280;34915;52.926;11.116;2023-04-27T06:00:46;101996.03;;;5.37;95.13
49104;BME280;34915;52.926;11.116;2023-04-27T06:03:12;102006.38;;;5.43;93.24
49104;BME280;34915;52.926;11.116;2023-04-27T06:05:37;102001.03;;;5.46;92.48
49104;BME280;34915;52.926;11.116;2023-04-27T06:08:03;101997.59;;;5.44;92.61
49104;BME280;34915;52.926;11.116;2023-04-27T06:10:28;101998.44;;;5.44;92.02
49104;BME280;34915;52.926;11.116;2023-04-27T06:12:54;101991.22;;;5.52;92.75
49104;BME280;34915;52.926;11.116;2023-04-27T06:15:20;101997.13;;;5.59;90.87
49104;BME280;34915;52.926;11.116;2023-04-27T06:17:45;101995.13;;;5.67;90.27
49104;BME280;34915;52.926;11.116;2023-04-27T06:20:11;101992.16;;;5.79;91.24
49104;BME280;34915;52.926;11.116;2023-04-27T06:22:37;101991.81;;;5.89;90.49
49104;BME280;34915;52.926;11.116;2023-04-27T06:25:04;101986.44;;;5.92;90.05
49104;BME280;34915;52.926;11.116;2023-04-27T06:27:30;101994.97;;;6.00;88.36
49104;BME280;34915;52.926;11.116;2023-04-27T06:29:56;101999.94;;;6.09;87.54
49104;BME280;34915;52.926;11.116;2023-04-27T06:32:22;101998.84;;;6.14;86.87
49104;BME280;34915;52.926;11.116;2023-04-27T06:34:48;101992.09;;;6.32;87.06
49104;BME280;34915;52.926;11.116;2023-04-27T06:37:13;101993.38;;;6.46;87.16
49104;BME280;34915;52.926;11.116;2023-04-27T06:39:43;101997.41;;;6.56;86.44
49104;BME280;34915;52.926;11.116;2023-04-27T06:42:09;101995.28;;;6.67;86.38
49104;BME280;34915;52.926;11.116;2023-04-27T06:44:34;101992.53;;;6.70;84.39
49104;BME280;34915;52.926;11.116;2023-04-27T06:47:01;101996.44;;;6.83;85.18
49104;BME280;34915;52.926;11.116;2023-04-27T06:49:26;101999.56;;;6.93;85.02
49104;BME280;34915;52.926;11.116;2023-04-27T06:51:52;101993.84;;;7.05;83.17
49104;BME280;34915;52.926;11.116;2023-04-27T06:54:17;102004.16;;;7.11;81.95
49104;BME280;34915;52.926;11.116;2023-04-27T06:56:43;102009.41;;;7.11;80.78
49104;BME280;34915;52.926;11.116;2023-04-27T06:59:09;101998.53;;;7.20;81.64
49104;BME280;34915;52.926;11.116;2023-04-27T07:01:35;101999.78;;;7.33;79.30
49104;BME280;34915;52.926;11.116;2023-04-27T07:04:02;102006.56;;;7.40;79.95
49104;BME280;34915;52.926;11.116;2023-04-27T07:06:28;101996.13;;;7.37;78.10
49104;BME280;34915;52.926;11.116;2023-04-27T07:08:53;102005.72;;;7.61;78.81
49104;BME280;34915;52.926;11.116;2023-04-27T07:11:19;102006.25;;;7.70;77.46
49104;BME280;34915;52.926;11.116;2023-04-27T07:13:45;102003.44;;;7.75;77.49
49104;BME280;34915;52.926;11.116;2023-04-27T07:16:11;101999.28;;;7.90;76.91
49104;BME280;34915;52.926;11.116;2023-04-27T07:18:39;102007.59;;;8.01;75.84
49104;BME280;34915;52.926;11.116;2023-04-27T07:21:05;102008.22;;;8.08;74.36
49104;BME280;34915;52.926;11.116;2023-04-27T07:23:31;102013.75;;;8.23;73.96
49104;BME280;34915;52.926;11.116;2023-04-27T07:25:56;102004.28;;;8.39;73.92
49104;BME280;34915;52.926;11.116;2023-04-27T07:28:22;102001.81;;;8.56;72.03
49104;BME280;34915;52.926;11.116;2023-04-27T07:30:47;102001.00;;;8.34;70.86
49104;BME280;34915;52.926;11.116;2023-04-27T07:33:13;102005.75;;;8.46;71.42
49104;BME280;34915;52.926;11.116;2023-04-27T07:35:39;102002.59;;;8.58;68.54
49104;BME280;34915;52.926;11.116;2023-04-27T07:38:04;102010.38;;;8.61;68.02
49104;BME280;34915;52.926;11.116;2023-04-27T07:40:31;102007.88;;;8.78;67.90
49104;BME280;34915;52.926;11.116;2023-04-27T07:42:59;102001.50;;;9.01;67.54
49104;BME280;34915;52.926;11.116;2023-04-27T07:45:25;102011.66;;;9.10;67.84
49104;BME280;34915;52.926;11.116;2023-04-27T07:47:57;102009.28;;;9.42;66.61
49104;BME280;34915;52.926;11.116;2023-04-27T07:50:25;102013.00;;;9.57;66.08
49104;BME280;34915;52.926;11.116;2023-04-27T07:52:52;102009.00;;;9.67;64.36
49104;BME280;34915;52.926;11.116;2023-04-27T07:55:20;102018.38;;;9.74;64.49
49104;BME280;34915;52.926;11.116;2023-04-27T07:57:46;102011.28;;;9.92;61.66
49104;BME280;34915;52.926;11.116;2023-04-27T08:00:12;102006.59;;;9.81;61.74
49104;BME280;34915;52.926;11.116;2023-04-27T08:02:38;102013.06;;;10.10;62.83
49104;BME280;34915;52.926;11.116;2023-04-27T08:05:04;102013.34;;;10.39;61.37
49104;BME280;34915;52.926;11.116;2023-04-27T08:07:29;102016.53;;;10.29;60.14
49104;BME280;34915;52.926;11.116;2023-04-27T08:09:56;102020.16;;;9.91;58.84
49104;BME280;34915;52.926;11.116;2023-04-27T08:12:22;102024.59;;;9.73;61.25
49104;BME280;34915;52.926;11.116;2023-04-27T08:14:47;102029.59;;;9.42;61.15
49104;BME280;34915;52.926;11.116;2023-04-27T08:17:13;102025.16;;;9.24;63.77
49104;BME280;34915;52.926;11.116;2023-04-27T08:19:39;102027.66;;;9.07;62.36
49104;BME280;34915;52.926;11.116;2023-04-27T08:22:05;102037.66;;;9.01;63.13
49104;BME280;34915;52.926;11.116;2023-04-27T08:24:31;102032.13;;;9.25;61.62
49104;BME280;34915;52.926;11.116;2023-04-27T08:26:56;102020.59;;;9.64;61.00
49104;BME280;34915;52.926;11.116;2023-04-27T08:29:22;102021.47;;;9.65;58.94
49104;BME280;34915;52.926;11.116;2023-04-27T08:31:47;102019.00;;;9.79;61.02
49104;BME280;34915;52.926;11.116;2023-04-27T08:34:13;102021.47;;;9.65;61.02
49104;BME280;34915;52.926;11.116;2023-04-27T08:36:39;102026.03;;;9.43;62.14
49104;BME280;34915;52.926;11.116;2023-04-27T08:39:04;102030.84;;;9.15;61.90
49104;BME280;34915;52.926;11.116;2023-04-27T08:41:41;102018.28;;;9.20;61.71
49104;BME280;34915;52.926;11.116;2023-04-27T08:44:08;102021.16;;;9.34;60.95
49104;BME280;34915;52.926;11.116;2023-04-27T08:46:33;102005.44;;;9.68;60.63
49104;BME280;34915;52.926;11.116;2023-04-27T08:49:01;102005.13;;;10.10;60.86
49104;BME280;34915;52.926;11.116;2023-04-27T08:51:26;102001.59;;;10.45;59.23
49104;BME280;34915;52.926;11.116;2023-04-27T08:53:55;101993.31;;;10.84;58.60
49104;BME280;34915;52.926;11.116;2023-04-27T08:56:23;101985.75;;;10.94;58.76
49104;BME280;34915;52.926;11.116;2023-04-27T08:58:53;101984.13;;;10.75;56.89
49104;BME280;34915;52.926;11.116;2023-04-27T09:01:19;101987.41;;;10.80;55.18
49104;BME280;34915;52.926;11.116;2023-04-27T09:03:45;101991.09;;;10.60;54.98
49104;BME280;34915;52.926;11.116;2023-04-27T09:06:11;101994.25;;;10.50;56.87
49104;BME280;34915;52.926;11.116;2023-04-27T09:08:47;101984.63;;;10.49;55.50
49104;BME280;34915;52.926;11.116;2023-04-27T09:11:14;101984.28;;;10.38;55.99
49104;BME280;34915;52.926;11.116;2023-04-27T09:13:41;101977.88;;;10.76;58.11
49104;BME280;34915;52.926;11.116;2023-04-27T09:16:11;101969.72;;;10.63;55.45
49104;BME280;34915;52.926;11.116;2023-04-27T09:18:40;101961.25;;;10.40;53.65
49104;BME280;34915;52.926;11.116;2023-04-27T09:21:06;101961.69;;;10.31;53.52
49104;BME280;34915;52.926;11.116;2023-04-27T09:23:36;101967.44;;;10.56;52.47
49104;BME280;34915;52.926;11.116;2023-04-27T09:26:04;101961.72;;;11.29;54.74
49104;BME280;34915;52.926;11.116;2023-04-27T09:28:33;101962.59;;;11.45;52.27
49104;BME280;34915;52.926;11.116;2023-04-27T09:31:01;101962.28;;;11.51;50.09
49104;BME280;34915;52.926;11.116;2023-04-27T09:33:28;101958.88;;;11.49;51.23
49104;BME280;34915;52.926;11.116;2023-04-27T09:35:55;101971.84;;;11.99;53.53
49104;BME280;34915;52.926;11.116;2023-04-27T09:38:22;101958.56;;;12.44;51.31
49104;BME280;34915;52.926;11.116;2023-04-27T09:40:51;101953.16;;;12.16;49.29
49104;BME280;34915;52.926;11.116;2023-04-27T09:43:17;101967.09;;;11.43;50.47
49104;BME280;34915;52.926;11.116;2023-04-27T09:45:43;101962.38;;;11.17;52.48
49104;BME280;34915;52.926;11.116;2023-04-27T09:48:10;101965.03;;;10.85;54.34
49104;BME280;34915;52.926;11.116;2023-04-27T09:50:37;101966.22;;;10.63;54.61
49104;BME280;34915;52.926;11.116;2023-04-27T09:53:14;101966.38;;;10.43;52.52
49104;BME280;34915;52.926;11.116;2023-04-27T09:55:43;101977.16;;;10.40;52.47
49104;BME280;34915;52.926;11.116;2023-04-27T10:03:54;101978.34;;;10.16;52.56
49104;BME280;34915;52.926;11.116;2023-04-27T10:09:01;101980.75;;;10.21;51.97
49104;BME280;34915;52.926;11.116;2023-04-27T10:11:41;101987.09;;;10.18;53.17
49104;BME280;34915;52.926;11.116;2023-04-27T10:14:09;101975.88;;;10.30;52.41
49104;BME280;34915;52.926;11.116;2023-04-27T10:16:55;101984.13;;;10.41;53.44
49104;BME280;34915;52.926;11.116;2023-04-27T10:19:22;101971.81;;;10.74;53.25
49104;BME280;34915;52.926;11.116;2023-04-27T10:21:58;101968.50;;;11.02;50.61
49104;BME280;34915;52.926;11.116;2023-04-27T10:24:33;101970.75;;;11.25;52.45
49104;BME280;34915;52.926;11.116;2023-04-27T10:27:08;101970.97;;;11.37;49.32
49104;BME280;34915;52.926;11.116;2023-04-27T10:29:41;101970.44;;;11.31;51.01
49104;BME280;34915;52.926;11.116;2023-04-27T10:32:12;101984.41;;;11.02;51.86
49104;BME280;34915;52.926;11.116;2023-04-27T10:34:38;101978.66;;;10.78;50.04
49104;BME280;34915;52.926;11.116;2023-04-27T10:37:09;101975.09;;;10.79;52.38
49104;BME280;34915;52.926;11.116;2023-04-27T10:39:42;101982.28;;;10.43;51.30
49104;BME280;34915;52.926;11.116;2023-04-27T10:42:08;101986.84;;;10.39;52.30
49104;BME280;34915;52.926;11.116;2023-04-27T10:44:36;101984.69;;;10.47;53.35
49104;BME280;34915;52.926;11.116;2023-04-27T10:47:12;101984.59;;;10.32;53.75
49104;BME280;34915;52.926;11.116;2023-04-27T10:49:38;101987.97;;;10.52;56.64
49104;BME280;34915;52.926;11.116;2023-04-27T10:52:04;101984.19;;;10.90;55.55
49104;BME280;34915;52.926;11.116;2023-04-27T10:54:31;101982.47;;;10.89;55.47
49104;BME280;34915;52.926;11.116;2023-04-27T10:57:05;101980.88;;;10.70;54.78
49104;BME280;34915;52.926;11.116;2023-04-27T10:59:31;101960.91;;;10.80;52.59
49104;BME280;34915;52.926;11.116;2023-04-27T11:01:57;101962.06;;;11.38;52.56
49104;BME280;34915;52.926;11.116;2023-04-27T11:04:22;101976.00;;;11.74;53.72
49104;BME280;34915;52.926;11.116;2023-04-27T11:06:48;101966.56;;;11.84;50.89
49104;BME280;34915;52.926;11.116;2023-04-27T11:09:25;101966.06;;;11.62;48.54
49104;BME280;34915;52.926;11.116;2023-04-27T11:11:53;101967.94;;;11.76;51.96
49104;BME280;34915;52.926;11.116;2023-04-27T11:14:19;101964.66;;;11.86;50.65
49104;BME280;34915;52.926;11.116;2023-04-27T11:16:47;101951.97;;;12.06;51.77
49104;BME280;34915;52.926;11.116;2023-04-27T11:19:13;101958.59;;;12.28;50.29
49104;BME280;34915;52.926;11.116;2023-04-27T11:21:38;101952.06;;;12.34;46.91
49104;BME280;34915;52.926;11.116;2023-04-27T11:24:08;101956.72;;;12.74;47.29
49104;BME280;34915;52.926;11.116;2023-04-27T11:26:34;101959.38;;;12.74;45.68
49104;BME280;34915;52.926;11.116;2023-04-27T11:29:08;101962.59;;;12.65;44.52
49104;BME280;34915;52.926;11.116;2023-04-27T11:34:03;101960.91;;;12.77;45.34
49104;BME280;34915;52.926;11.116;2023-04-27T11:36:28;101956.03;;;12.85;44.70
49104;BME280;34915;52.926;11.116;2023-04-27T11:38:57;101963.63;;;12.91;43.16
49104;BME280;34915;52.926;11.116;2023-04-27T11:41:32;101956.81;;;13.01;43.30
49104;BME280;34915;52.926;11.116;2023-04-27T11:44:03;101953.19;;;13.02;40.91
49104;BME280;34915;52.926;11.116;2023-04-27T11:46:29;101953.00;;;13.05;42.64
49104;BME280;34915;52.926;11.116;2023-04-27T11:49:00;101949.75;;;13.28;42.95
49104;BME280;34915;52.926;11.116;2023-04-27T11:51:28;101941.00;;;13.54;42.53
49104;BME280;34915;52.926;11.116;2023-04-27T11:53:54;101940.00;;;13.69;41.88
49104;BME280;34915;52.926;11.116;2023-04-27T11:56:20;101939.31;;;13.25;42.74
49104;BME280;34915;52.926;11.116;2023-04-27T11:58:46;101939.31;;;12.97;43.97
49104;BME280;34915;52.926;11.116;2023-04-27T12:01:12;101944.81;;;13.22;43.77
49104;BME280;34915;52.926;11.116;2023-04-27T12:03:37;101951.38;;;13.17;42.97
49104;BME280;34915;52.926;11.116;2023-04-27T12:06:03;101943.69;;;13.12;42.97
49104;BME280;34915;52.926;11.116;2023-04-27T12:08:28;101947.84;;;13.30;42.62
49104;BME280;34915;52.926;11.116;2023-04-27T12:10:54;101951.47;;;13.29;42.96
49104;BME280;34915;52.926;11.116;2023-04-27T12:13:20;101949.75;;;12.86;45.85
49104;BME280;34915;52.926;11.116;2023-04-27T12:15:45;101944.25;;;12.60;43.99
49104;BME280;34915;52.926;11.116;2023-04-27T12:18:11;101949.56;;;12.60;44.02
49104;BME280;34915;52.926;11.116;2023-04-27T12:20:36;101951.84;;;12.95;43.74
49104;BME280;34915;52.926;11.116;2023-04-27T12:23:02;101942.72;;;13.27;44.25
49104;BME280;34915;52.926;11.116;2023-04-27T12:25:28;101945.78;;;13.21;41.88
49104;BME280;34915;52.926;11.116;2023-04-27T12:27:54;101950.88;;;12.82;40.52
49104;BME280;34915;52.926;11.116;2023-04-27T12:30:23;101948.56;;;12.77;43.53
49104;BME280;34915;52.926;11.116;2023-04-27T12:32:48;101954.06;;;12.60;42.14
49104;BME280;34915;52.926;11.116;2023-04-27T12:35:14;101959.31;;;12.46;43.19
49104;BME280;34915;52.926;11.116;2023-04-27T12:37:39;101956.19;;;12.39;43.86
49104;BME280;34915;52.926;11.116;2023-04-27T12:40:08;101956.47;;;12.49;44.36
49104;BME280;34915;52.926;11.116;2023-04-27T12:42:37;101962.91;;;12.74;45.58
49104;BME280;34915;52.926;11.116;2023-04-27T12:45:02;101952.34;;;13.02;42.61
49104;BME280;34915;52.926;11.116;2023-04-27T12:47:28;101945.97;;;13.04;42.13
49104;BME280;34915;52.926;11.116;2023-04-27T12:49:54;101950.53;;;13.16;44.15
49104;BME280;34915;52.926;11.116;2023-04-27T12:52:19;101939.41;;;13.77;45.46